sensor_id;sensor_type;location;lat;lon;timestamp;pressure;altitude;pressure_sealevel;temperature;humidity
44079;BME280;29744;49.078;12.878;2023-04-23T00:00:31;95845.72;;;15.01;36.76
44079;BME280;29744;49.078;12.878;2023-04-23T00:05:32;95851.91;;;15.01;36.73
44079;BME280;29744;49.078;12.878;2023-04-23T00:10:33;95838.41;;;15.01;36.75
44079;BME280;29744;49.078;12.878;2023-04-23T00:15:34;95832.22;;;15.01;37.02
44079;BME280;29744;49.078;12.878;2023-04-23T00:20:34;95814.44;;;15.00;37.07
44079;BME280;29744;49.078;12.878;2023-04-23T00:25:35;95816.34;;;14.99;36.64
44079;BME280;29744;49.078;12.878;2023-04-23T00:30:36;95800.50;;;14.98;36.65
44079;BME280;29744;49.078;12.878;2023-04-23T00:35:36;95798.56;;;14.98;36.54
44079;BME280;29744;49.078;12.878;2023-04-23T00:40:36;95794.31;;;14.97;36.75
44079;BME280;29744;49.078;12.878;2023-04-23T00:45:36;95793.53;;;14.97;36.85
44079;BME280;29744;49.078;12.878;2023-04-23T00:50:37;95791.94;;;14.96;37.02
44079;BME280;29744;49.078;12.878;2023-04-23T00:55:37;95784.63;;;14.96;36.56
44079;BME280;29744;49.078;12.878;2023-04-23T01:00:43;95792.72;;;14.96;37.04
44079;BME280;29744;49.078;12.878;2023-04-23T01:05:46;95788.81;;;14.94;37.07
44079;BME280;29744;49.078;12.878;2023-04-23T01:10:47;95796.91;;;14.94;36.80
44079;BME280;29744;49.078;12.878;2023-04-23T01:15:47;95798.81;;;14.93;36.94
44079;BME280;29744;49.078;12.878;2023-04-23T01:20:47;95804.22;;;14.93;36.53
44079;BME280;29744;49.078;12.878;2023-04-23T01:25:48;95791.84;;;14.92;37.11
44079;BME280;29744;49.078;12.878;2023-04-23T01:30:49;95797.25;;;14.92;36.75
44079;BME280;29744;49.078;12.878;2023-04-23T01:35:50;95801.84;;;14.92;36.64
44079;BME280;29744;49.078;12.878;2023-04-23T01:40:50;95794.88;;;14.91;37.15
44079;BME280;29744;49.078;12.878;2023-04-23T01:45:51;95796.78;;;14.90;36.81
44079;BME280;29744;49.078;12.878;2023-04-23T01:50:52;95799.50;;;14.90;36.67
44079;BME280;29744;49.078;12.878;2023-04-23T01:55:55;95802.19;;;14.90;36.62
44079;BME280;29744;49.078;12.878;2023-04-23T02:00:56;95795.22;;;14.89;36.94
44079;BME280;29744;49.078;12.878;2023-04-23T02:05:57;95804.09;;;14.90;36.63
44079;BME280;29744;49.078;12.878;2023-04-23T02:10:58;95804.44;;;14.88;36.86
44079;BME280;29744;49.078;12.878;2023-04-23T02:15:58;95800.97;;;14.88;37.10
44079;BME280;29744;49.078;12.878;2023-04-23T02:20:59;95797.47;;;14.87;37.17
44079;BME280;29744;49.078;12.878;2023-04-23T02:25:59;95810.19;;;14.87;37.29
44079;BME280;29744;49.078;12.878;2023-04-23T02:30:59;95809.41;;;14.86;37.04
44079;BME280;29744;49.078;12.878;2023-04-23T02:36:00;95809.75;;;14.85;36.95
44079;BME280;29744;49.078;12.878;2023-04-23T02:41:00;95807.84;;;14.85;36.95
44079;BME280;29744;49.078;12.878;2023-04-23T02:46:00;95814.34;;;14.84;37.03
44079;BME280;29744;49.078;12.878;2023-04-23T02:51:09;95823.25;;;14.85;37.25
44079;BME280;29744;49.078;12.878;2023-04-23T02:56:09;95813.56;;;14.83;36.99
44079;BME280;29744;49.078;12.878;2023-04-23T03:01:10;95824.38;;;14.83;37.19
44079;BME280;29744;49.078;12.878;2023-04-23T03:06:10;95827.06;;;14.83;37.19
44079;BME280;29744;49.078;12.878;2023-04-23T03:11:10;95820.09;;;14.82;37.06
44079;BME280;29744;49.078;12.878;2023-04-23T03:16:10;95833.59;;;14.82;36.97
44079;BME280;29744;49.078;12.878;2023-04-23T03:21:11;95830.09;;;14.82;37.17
44079;BME280;29744;49.078;12.878;2023-04-23T03:26:11;95842.03;;;14.81;37.25
44079;BME280;29744;49.078;12.878;2023-04-23T03:31:12;95837.41;;;14.81;37.27
44079;BME280;29744;49.078;12.878;2023-04-23T03:36:12;95839.34;;;14.81;37.20
44079;BME280;29744;49.078;12.878;2023-04-23T03:41:12;95835.84;;;14.80;36.73
44079;BME280;29744;49.078;12.878;2023-04-23T03:46:13;95852.81;;;14.81;36.99
44079;BME280;29744;49.078;12.878;2023-04-23T03:51:13;95849.44;;;14.84;36.89
44079;BME280;29744;49.078;12.878;2023-04-23T03:56:13;95857.31;;;14.89;37.06
44079;BME280;29744;49.078;12.878;2023-04-23T04:01:14;95858.66;;;14.95;36.90
44079;BME280;29744;49.078;12.878;2023-04-23T04:06:14;95858.91;;;15.02;36.93
44079;BME280;29744;49.078;12.878;2023-04-23T04:11:14;95855.28;;;15.10;36.80
44079;BME280;29744;49.078;12.878;2023-04-23T04:16:15;95858.63;;;15.20;36.89
44079;BME280;29744;49.078;12.878;2023-04-23T04:21:15;95851.19;;;15.29;36.53
44079;BME280;29744;49.078;12.878;2023-04-23T04:26:16;95858.03;;;15.38;36.78
44079;BME280;29744;49.078;12.878;2023-04-23T04:31:16;95864.06;;;15.48;36.25
44079;BME280;29744;49.078;12.878;2023-04-23T04:36:19;95861.91;;;15.53;36.43
44079;BME280;29744;49.078;12.878;2023-04-23T04:41:21;95864.81;;;15.60;36.10
44079;BME280;29744;49.078;12.878;2023-04-23T04:46:21;95863.00;;;15.64;36.17
44079;BME280;29744;49.078;12.878;2023-04-23T04:51:21;95866.25;;;15.70;36.26
44079;BME280;29744;49.078;12.878;2023-04-23T04:56:22;95871.41;;;15.75;36.28
44079;BME280;29744;49.078;12.878;2023-04-23T05:01:23;95869.13;;;15.77;35.98
44079;BME280;29744;49.078;12.878;2023-04-23T05:06:24;95867.69;;;15.80;36.15
44079;BME280;29744;49.078;12.878;2023-04-23T05:11:25;95877.81;;;15.83;36.11
44079;BME280;29744;49.078;12.878;2023-04-23T05:16:25;95874.75;;;15.84;35.96
44079;BME280;29744;49.078;12.878;2023-04-23T05:21:25;95880.97;;;15.85;35.91
44079;BME280;29744;49.078;12.878;2023-04-23T05:26:26;95875.22;;;15.86;36.02
44079;BME280;29744;49.078;12.878;2023-04-23T05:31:26;95879.47;;;15.87;35.93
44079;BME280;29744;49.078;12.878;2023-04-23T05:36:27;95882.19;;;15.87;35.66
44079;BME280;29744;49.078;12.878;2023-04-23T05:41:27;95884.91;;;15.87;35.80
44079;BME280;29744;49.078;12.878;2023-04-23T05:46:27;95887.59;;;15.87;36.08
44079;BME280;29744;49.078;12.878;2023-04-23T05:51:28;95886.81;;;15.87;35.75
44079;BME280;29744;49.078;12.878;2023-04-23T05:56:28;95888.72;;;15.86;35.76
44079;BME280;29744;49.078;12.878;2023-04-23T06:01:28;95890.31;;;15.87;35.71
44079;BME280;29744;49.078;12.878;2023-04-23T06:06:28;95892.56;;;15.85;35.81
44079;BME280;29744;49.078;12.878;2023-04-23T06:11:29;95897.19;;;15.85;35.88
44079;BME280;29744;49.078;12.878;2023-04-23T06:16:31;95901.81;;;15.84;35.75
44079;BME280;29744;49.078;12.878;2023-04-23T06:21:31;95910.25;;;15.83;35.97
44079;BME280;29744;49.078;12.878;2023-04-23T06:26:32;95910.59;;;15.81;36.05
44079;BME280;29744;49.078;12.878;2023-04-23T06:31:32;95913.66;;;15.80;36.04
44079;BME280;29744;49.078;12.878;2023-04-23T06:36:32;95909.34;;;15.78;36.04
44079;BME280;29744;49.078;12.878;2023-04-23T06:41:33;95914.31;;;15.76;36.02
44079;BME280;29744;49.078;12.878;2023-04-23T06:46:33;95916.22;;;15.76;35.87
44079;BME280;29744;49.078;12.878;2023-04-23T06:51:33;95925.47;;;15.75;35.72
44079;BME280;29744;49.078;12.878;2023-04-23T06:56:34;95923.09;;;15.73;35.93
44079;BME280;29744;49.078;12.878;2023-04-23T07:01:34;95914.22;;;15.73;35.87
44079;BME280;29744;49.078;12.878;2023-04-23T07:06:35;95914.56;;;15.71;36.08
44079;BME280;29744;49.078;12.878;2023-04-23T07:11:35;95908.72;;;15.69;36.16
44079;BME280;29744;49.078;12.878;2023-04-23T07:16:36;95916.03;;;15.69;36.02
44079;BME280;29744;49.078;12.878;2023-04-23T07:21:36;95913.66;;;15.67;35.91
44079;BME280;29744;49.078;12.878;2023-04-23T07:26:36;95920.19;;;15.66;35.99
44079;BME280;29744;49.078;12.878;2023-04-23T07:31:38;95928.66;;;15.65;36.06
44079;BME280;29744;49.078;12.878;2023-04-23T07:36:40;95921.69;;;15.64;35.97
44079;BME280;29744;49.078;12.878;2023-04-23T07:41:40;95934.75;;;15.62;35.83
44079;BME280;29744;49.078;12.878;2023-04-23T07:46:41;95934.41;;;15.63;36.05
44079;BME280;29744;49.078;12.878;2023-04-23T07:51:41;95928.22;;;15.63;35.89
44079;BME280;29744;49.078;12.878;2023-04-23T07:56:41;95934.75;;;15.62;36.06
44079;BME280;29744;49.078;12.878;2023-04-23T08:01:41;95931.25;;;15.61;35.86
44079;BME280;29744;49.078;12.878;2023-04-23T08:06:42;95934.31;;;15.60;36.07
44079;BME280;29744;49.078;12.878;2023-04-23T08:11:42;95928.44;;;15.58;36.18
44079;BME280;29744;49.078;12.878;2023-04-23T08:16:46;95924.19;;;15.57;36.39
44079;BME280;29744;49.078;12.878;2023-04-23T08:21:47;95918.31;;;15.55;36.25
44079;BME280;29744;49.078;12.878;2023-04-23T08:26:47;95926.44;;;15.55;36.41
44079;BME280;29744;49.078;12.878;2023-04-23T08:31:48;95917.09;;;15.52;36.26
44079;BME280;29744;49.078;12.878;2023-04-23T08:36:48;95922.50;;;15.52;36.03
44079;BME280;29744;49.078;12.878;2023-04-23T08:41:54;95908.53;;;15.50;36.05
44079;BME280;29744;49.078;12.878;2023-04-23T08:46:55;95915.06;;;15.49;36.52
44079;BME280;29744;49.078;12.878;2023-04-23T08:52:00;95913.50;;;15.48;36.25
44079;BME280;29744;49.078;12.878;2023-04-23T08:57:03;95916.53;;;15.46;36.10
44079;BME280;29744;49.078;12.878;2023-04-23T09:02:05;95915.75;;;15.46;36.56
44079;BME280;29744;49.078;12.878;2023-04-23T09:07:09;95924.66;;;15.46;36.48
44079;BME280;29744;49.078;12.878;2023-04-23T09:12:12;95933.44;;;15.43;36.16
44079;BME280;29744;49.078;12.878;2023-04-23T09:17:12;95929.94;;;15.43;36.40
44079;BME280;29744;49.078;12.878;2023-04-23T09:22:12;95923.75;;;15.42;36.13
44079;BME280;29744;49.078;12.878;2023-04-23T09:27:18;95915.66;;;15.42;36.58
44079;BME280;29744;49.078;12.878;2023-04-23T09:32:30;95909.81;;;15.40;36.28
44079;BME280;29744;49.078;12.878;2023-04-23T09:37:33;95909.81;;;15.40;36.43
44079;BME280;29744;49.078;12.878;2023-04-23T09:42:35;95914.41;;;15.40;36.54
44079;BME280;29744;49.078;12.878;2023-04-23T09:47:39;95903.97;;;15.38;36.53
44079;BME280;29744;49.078;12.878;2023-04-23T09:52:40;95898.56;;;15.38;36.38
44079;BME280;29744;49.078;12.878;2023-04-23T09:57:40;95895.06;;;15.38;36.09
44079;BME280;29744;49.078;12.878;2023-04-23T10:02:48;95895.06;;;15.38;36.45
44079;BME280;29744;49.078;12.878;2023-04-23T10:07:49;95890.44;;;15.38;36.39
44079;BME280;29744;49.078;12.878;2023-04-23T10:12:51;95890.44;;;15.38;36.38
44079;BME280;29744;49.078;12.878;2023-04-23T10:17:53;95890.44;;;15.38;36.06
44079;BME280;29744;49.078;12.878;2023-04-23T10:22:56;95888.53;;;15.39;36.60
44079;BME280;29744;49.078;12.878;2023-04-23T10:27:57;95882.00;;;15.40;36.41
44079;BME280;29744;49.078;12.878;2023-04-23T10:32:59;95882.00;;;15.40;36.37
44079;BME280;29744;49.078;12.878;2023-04-23T10:38:00;95881.22;;;15.39;36.03
44079;BME280;29744;49.078;12.878;2023-04-23T10:43:01;95872.31;;;15.39;36.39
44079;BME280;29744;49.078;12.878;2023-04-23T10:48:02;95876.16;;;15.38;36.65
44079;BME280;29744;49.078;12.878;2023-04-23T10:53:03;95862.66;;;15.38;36.32
44079;BME280;29744;49.078;12.878;2023-04-23T10:58:05;95860.28;;;15.36;36.51
44079;BME280;29744;49.078;12.878;2023-04-23T11:08:34;95854.44;;;15.34;36.42
44079;BME280;29744;49.078;12.878;2023-04-23T11:13:34;95845.88;;;15.32;36.61
44079;BME280;29744;49.078;12.878;2023-04-23T11:19:03;95849.72;;;15.31;36.62
44079;BME280;29744;49.078;12.878;2023-04-23T11:24:07;95841.63;;;15.31;36.80
44079;BME280;29744;49.078;12.878;2023-04-23T11:29:07;95843.53;;;15.31;36.63
44079;BME280;29744;49.078;12.878;2023-04-23T11:34:08;95842.75;;;15.30;36.32
44079;BME280;29744;49.078;12.878;2023-04-23T11:39:09;95841.16;;;15.29;36.47
44079;BME280;29744;49.078;12.878;2023-04-23T11:44:12;95833.06;;;15.29;36.41
44079;BME280;29744;49.078;12.878;2023-04-23T11:49:13;95829.13;;;15.27;36.37
44079;BME280;29744;49.078;12.878;2023-04-23T11:54:14;95822.59;;;15.28;36.18
44079;BME280;29744;49.078;12.878;2023-04-23T11:59:14;95814.84;;;15.26;36.19
44079;BME280;29744;49.078;12.878;2023-04-23T12:04:22;95812.47;;;15.25;36.79
44079;BME280;29744;49.078;12.878;2023-04-23T12:09:24;95814.41;;;15.24;36.50
44079;BME280;29744;49.078;12.878;2023-04-23T12:14:28;95809.44;;;15.26;36.82
44079;BME280;29744;49.078;12.878;2023-04-23T12:19:29;95790.53;;;15.26;36.62
44079;BME280;29744;49.078;12.878;2023-04-23T12:24:48;95787.03;;;15.26;36.64
44079;BME280;29744;49.078;12.878;2023-04-23T12:29:59;95782.09;;;15.28;36.45
44079;BME280;29744;49.078;12.878;2023-04-23T12:34:59;95779.03;;;15.29;36.44
44079;BME280;29744;49.078;12.878;2023-04-23T12:39:59;95771.72;;;15.30;36.43
44079;BME280;29744;49.078;12.878;2023-04-23T12:45:07;95765.19;;;15.31;36.36
44079;BME280;29744;49.078;12.878;2023-04-23T12:50:08;95758.66;;;15.32;36.54
44079;BME280;29744;49.078;12.878;2023-04-23T12:55:08;95738.97;;;15.31;36.72
44079;BME280;29744;49.078;12.878;2023-04-23T13:00:09;95738.97;;;15.31;36.67
44079;BME280;29744;49.078;12.878;2023-04-23T13:05:10;95732.78;;;15.31;36.17
44079;BME280;29744;49.078;12.878;2023-04-23T13:10:10;95723.09;;;15.30;36.50
44079;BME280;29744;49.078;12.878;2023-04-23T13:15:11;95703.41;;;15.29;36.51
44079;BME280;29744;49.078;12.878;2023-04-23T13:20:14;95698.00;;;15.29;36.55
44079;BME280;29744;49.078;12.878;2023-04-23T13:25:14;95687.53;;;15.28;36.51
44079;BME280;29744;49.078;12.878;2023-04-23T13:30:15;95682.91;;;15.28;36.43
44079;BME280;29744;49.078;12.878;2023-04-23T13:35:15;95666.72;;;15.28;36.46
44079;BME280;29744;49.078;12.878;2023-04-23T13:40:16;95649.72;;;15.28;36.57
44079;BME280;29744;49.078;12.878;2023-04-23T13:45:17;95645.09;;;15.28;36.67
44079;BME280;29744;49.078;12.878;2023-04-23T13:50:17;95640.13;;;15.30;36.34
44079;BME280;29744;49.078;12.878;2023-04-23T13:55:17;95629.34;;;15.30;36.32
44079;BME280;29744;49.078;12.878;2023-04-23T14:00:18;95622.44;;;15.33;36.53
44079;BME280;29744;49.078;12.878;2023-04-23T14:05:18;95610.50;;;15.34;36.45
44079;BME280;29744;49.078;12.878;2023-04-23T14:10:18;95605.53;;;15.36;36.71
44079;BME280;29744;49.078;12.878;2023-04-23T14:15:19;95600.13;;;15.36;36.53
44079;BME280;29744;49.078;12.878;2023-04-23T14:20:19;95591.69;;;15.37;36.34
44079;BME280;29744;49.078;12.878;2023-04-23T14:25:28;95589.78;;;15.38;36.46
44079;BME280;29744;49.078;12.878;2023-04-23T14:30:28;95590.19;;;15.40;36.25
44079;BME280;29744;49.078;12.878;2023-04-23T14:35:29;95571.28;;;15.40;36.17
44079;BME280;29744;49.078;12.878;2023-04-23T14:40:29;95563.97;;;15.40;36.49
44079;BME280;29744;49.078;12.878;2023-04-23T14:45:30;95562.06;;;15.41;36.65
44079;BME280;29744;49.078;12.878;2023-04-23T14:50:32;95556.66;;;15.41;36.38
44079;BME280;29744;49.078;12.878;2023-04-23T14:55:32;95553.16;;;15.40;36.38
44079;BME280;29744;49.078;12.878;2023-04-23T15:00:33;95540.44;;;15.41;36.48
44079;BME280;29744;49.078;12.878;2023-04-23T15:05:33;95537.75;;;15.41;36.72
44079;BME280;29744;49.078;12.878;2023-04-23T15:10:33;95536.94;;;15.40;36.46
44079;BME280;29744;49.078;12.878;2023-04-23T15:20:37;95516.13;;;15.41;36.31
44079;BME280;29744;49.078;12.878;2023-04-23T15:25:38;95516.91;;;15.41;36.41
44079;BME280;29744;49.078;12.878;2023-04-23T15:30:38;95515.00;;;15.42;36.32
44079;BME280;29744;49.078;12.878;2023-04-23T15:35:39;95510.72;;;15.41;36.51
44079;BME280;29744;49.078;12.878;2023-04-23T15:40:40;95505.31;;;15.41;36.58
44079;BME280;29744;49.078;12.878;2023-04-23T15:45:42;95503.75;;;15.40;36.32
44079;BME280;29744;49.078;12.878;2023-04-23T15:50:42;95496.78;;;15.39;36.56
44079;BME280;29744;49.078;12.878;2023-04-23T15:55:43;95492.16;;;15.39;36.51
44079;BME280;29744;49.078;12.878;2023-04-23T16:00:43;95492.16;;;15.39;36.69
44079;BME280;29744;49.078;12.878;2023-04-23T16:05:44;95484.06;;;15.39;36.44
44079;BME280;29744;49.078;12.878;2023-04-23T16:10:47;95477.09;;;15.38;36.53
44079;BME280;29744;49.078;12.878;2023-04-23T16:15:47;95467.06;;;15.39;36.70
44079;BME280;29744;49.078;12.878;2023-04-23T16:20:47;95459.31;;;15.37;36.27
44079;BME280;29744;49.078;12.878;2023-04-23T16:25:48;95444.22;;;15.36;36.56
44079;BME280;29744;49.078;12.878;2023-04-23T16:30:48;95443.44;;;15.36;36.39
44079;BME280;29744;49.078;12.878;2023-04-23T16:35:48;95433.44;;;15.36;36.71
44079;BME280;29744;49.078;12.878;2023-04-23T16:40:49;95432.66;;;15.36;36.39
44079;BME280;29744;49.078;12.878;2023-04-23T16:45:50;95442.66;;;15.35;36.58
44079;BME280;29744;49.078;12.878;2023-04-23T16:50:50;95439.19;;;15.35;36.60
44079;BME280;29744;49.078;12.878;2023-04-23T16:55:51;95433.78;;;15.35;36.65
44079;BME280;29744;49.078;12.878;2023-04-23T17:00:51;95427.16;;;15.32;36.26
44079;BME280;29744;49.078;12.878;2023-04-23T17:05:58;95422.53;;;15.33;36.26
44079;BME280;29744;49.078;12.878;2023-04-23T17:10:59;95423.69;;;15.32;36.62
44079;BME280;29744;49.078;12.878;2023-04-23T17:16:00;95418.28;;;15.32;36.63
44079;BME280;29744;49.078;12.878;2023-04-23T17:21:00;95411.31;;;15.31;36.53
44079;BME280;29744;49.078;12.878;2023-04-23T17:26:00;95409.75;;;15.30;36.63
44079;BME280;29744;49.078;12.878;2023-04-23T17:31:01;95398.16;;;15.29;36.89
44079;BME280;29744;49.078;12.878;2023-04-23T17:36:02;95381.88;;;15.26;36.83
44079;BME280;29744;49.078;12.878;2023-04-23T17:41:03;95380.75;;;15.27;36.59
44079;BME280;29744;49.078;12.878;2023-04-23T17:46:03;95373.78;;;15.26;36.73
44079;BME280;29744;49.078;12.878;2023-04-23T17:51:03;95368.72;;;15.24;36.72
44079;BME280;29744;49.078;12.878;2023-04-23T17:56:04;95373.34;;;15.24;36.39
44079;BME280;29744;49.078;12.878;2023-04-23T18:01:06;95367.94;;;15.24;36.96
44079;BME280;29744;49.078;12.878;2023-04-23T18:06:06;95373.69;;;15.22;36.50
44079;BME280;29744;49.078;12.878;2023-04-23T18:11:08;95374.84;;;15.21;36.98
44079;BME280;29744;49.078;12.878;2023-04-23T18:16:08;95382.16;;;15.21;36.84
44079;BME280;29744;49.078;12.878;2023-04-23T18:21:08;95381.38;;;15.20;36.62
44079;BME280;29744;49.078;12.878;2023-04-23T18:26:09;95374.41;;;15.19;37.07
44079;BME280;29744;49.078;12.878;2023-04-23T18:31:09;95380.16;;;15.18;36.72
44079;BME280;29744;49.078;12.878;2023-04-23T18:36:30;95379.72;;;15.16;36.86
44079;BME280;29744;49.078;12.878;2023-04-23T18:41:31;95383.22;;;15.16;37.04
44079;BME280;29744;49.078;12.878;2023-04-23T18:46:31;95383.22;;;15.16;36.63
44079;BME280;29744;49.078;12.878;2023-04-23T18:51:37;95386.25;;;15.14;36.68
44079;BME280;29744;49.078;12.878;2023-04-23T18:56:37;95380.88;;;15.14;36.94
44079;BME280;29744;49.078;12.878;2023-04-23T19:01:38;95385.47;;;15.14;37.02
44079;BME280;29744;49.078;12.878;2023-04-23T19:06:39;95384.69;;;15.13;36.89
44079;BME280;29744;49.078;12.878;2023-04-23T19:11:39;95379.66;;;15.12;36.56
44079;BME280;29744;49.078;12.878;2023-04-23T19:16:40;95368.06;;;15.11;36.68
44079;BME280;29744;49.078;12.878;2023-04-23T19:21:40;95374.59;;;15.10;36.92
44079;BME280;29744;49.078;12.878;2023-04-23T19:26:41;95367.63;;;15.09;36.66
44079;BME280;29744;49.078;12.878;2023-04-23T19:31:41;95370.34;;;15.09;37.02
44079;BME280;29744;49.078;12.878;2023-04-23T19:36:41;95372.25;;;15.09;37.00
44079;BME280;29744;49.078;12.878;2023-04-23T19:41:41;95384.19;;;15.08;37.05
44079;BME280;29744;49.078;12.878;2023-04-23T19:46:42;95389.59;;;15.08;36.72
44079;BME280;29744;49.078;12.878;2023-04-23T19:51:42;95398.81;;;15.07;37.24
44079;BME280;29744;49.078;12.878;2023-04-23T19:56:42;95400.75;;;15.06;37.06
44079;BME280;29744;49.078;12.878;2023-04-23T20:01:43;95406.16;;;15.06;37.24
44079;BME280;29744;49.078;12.878;2023-04-23T20:06:43;95411.91;;;15.05;36.91
44079;BME280;29744;49.078;12.878;2023-04-23T20:11:44;95414.59;;;15.05;37.06
44079;BME280;29744;49.078;12.878;2023-04-23T20:16:45;95431.94;;;15.04;37.01
44079;BME280;29744;49.078;12.878;2023-04-23T20:21:46;95431.94;;;15.04;36.99
44079;BME280;29744;49.078;12.878;2023-04-23T20:26:47;95426.53;;;15.04;37.19
44079;BME280;29744;49.078;12.878;2023-04-23T20:31:47;95424.19;;;15.02;37.24
44079;BME280;29744;49.078;12.878;2023-04-23T20:36:48;95426.06;;;15.02;37.22
44079;BME280;29744;49.078;12.878;2023-04-23T20:41:50;95426.06;;;15.02;36.80
44079;BME280;29744;49.078;12.878;2023-04-23T20:46:51;95414.47;;;15.01;37.21
44079;BME280;29744;49.078;12.878;2023-04-23T20:51:52;95408.31;;;15.01;36.76
44079;BME280;29744;49.078;12.878;2023-04-23T20:56:52;95404.81;;;15.00;36.73
44079;BME280;29744;49.078;12.878;2023-04-23T21:01:53;95397.84;;;14.99;37.30
44079;BME280;29744;49.078;12.878;2023-04-23T21:06:53;95394.00;;;15.00;37.01
44079;BME280;29744;49.078;12.878;2023-04-23T21:11:55;95386.69;;;15.01;37.04
44079;BME280;29744;49.078;12.878;2023-04-23T21:16:55;95389.75;;;14.99;37.11
44079;BME280;29744;49.078;12.878;2023-04-23T21:21:56;95382.44;;;15.00;36.95
44079;BME280;29744;49.078;12.878;2023-04-23T21:26:56;95422.16;;;14.99;37.33
44079;BME280;29744;49.078;12.878;2023-04-23T21:31:56;95448.00;;;15.00;37.13
44079;BME280;29744;49.078;12.878;2023-04-23T21:36:57;95468.84;;;15.00;37.07
44079;BME280;29744;49.078;12.878;2023-04-23T21:41:57;95493.13;;;15.00;36.85
44079;BME280;29744;49.078;12.878;2023-04-23T21:46:58;95527.44;;;14.99;37.22
44079;BME280;29744;49.078;12.878;2023-04-23T21:51:58;95506.19;;;14.98;37.09
44079;BME280;29744;49.078;12.878;2023-04-23T21:57:00;95509.69;;;14.98;37.22
44079;BME280;29744;49.078;12.878;2023-04-23T22:02:01;95511.59;;;14.98;37.43
44079;BME280;29744;49.078;12.878;2023-04-23T22:07:02;95508.91;;;14.98;37.06
44079;BME280;29744;49.078;12.878;2023-04-23T22:12:04;95525.09;;;14.98;37.08
44079;BME280;29744;49.078;12.878;2023-04-23T22:17:05;95525.44;;;14.96;36.84
44079;BME280;29744;49.078;12.878;2023-04-23T22:22:06;95524.66;;;14.96;37.21
44079;BME280;29744;49.078;12.878;2023-04-23T22:27:06;95535.47;;;14.96;37.41
44079;BME280;29744;49.078;12.878;2023-04-23T22:32:07;95528.13;;;14.96;37.20
44079;BME280;29744;49.078;12.878;2023-04-23T22:37:07;95529.63;;;14.94;37.37
44079;BME280;29744;49.078;12.878;2023-04-23T22:42:07;95541.19;;;14.94;37.19
44079;BME280;29744;49.078;12.878;2023-04-23T22:47:07;95552.00;;;14.94;37.39
44079;BME280;29744;49.078;12.878;2023-04-23T22:52:08;95552.34;;;14.93;37.25
44079;BME280;29744;49.078;12.878;2023-04-23T22:57:10;95545.81;;;14.94;36.90
44079;BME280;29744;49.078;12.878;2023-04-23T23:02:11;95531.88;;;14.92;37.25
44079;BME280;29744;49.078;12.878;2023-04-23T23:07:11;95521.09;;;14.92;37.28
44079;BME280;29744;49.078;12.878;2023-04-23T23:12:11;95512.19;;;14.91;37.18
44079;BME280;29744;49.078;12.878;2023-04-23T23:17:12;95512.19;;;14.91;37.18
44079;BME280;29744;49.078;12.878;2023-04-23T23:22:12;95514.91;;;14.91;37.18
44079;BME280;29744;49.078;12.878;2023-04-23T23:27:12;95500.63;;;14.91;37.10
44079;BME280;29744;49.078;12.878;2023-04-23T23:32:13;95500.97;;;14.89;37.44
44079;BME280;29744;49.078;12.878;2023-04-23T23:37:13;95498.28;;;14.89;37.02
44079;BME280;29744;49.078;12.878;2023-04-23T23:42:13;95490.16;;;14.89;37.49
44079;BME280;29744;49.078;12.878;2023-04-23T23:47:13;95498.28;;;14.89;37.01
44079;BME280;29744;49.078;12.878;2023-04-23T23:52:14;95493.22;;;14.88;37.27
44079;BME280;29744;49.078;12.878;2023-04-23T23:57:14;95490.53;;;14.88;37.27
